Accueil
METAR-TAF:

METAR-TAF

Aéroports :

Aéroport de Perpignan-Rivesaltes

Perpignan, France

latitude: 42-44N, longitude: 002-52E, altitude: 43 m

Observation

Le bulletin a été fait il y a 32 minutes, à 00:00 UTC
Vent 1 kt de direction variable
Température 19°C
Humidité 88%
Pression 1018 hPa
Visibilité 10 km ou plus
pas de nuages en-dessous de 1500 mètres et pas de cumulonimbus.

METAR: LFMP 210000Z AUTO VRB01KT CAVOK 19/17 Q1018

Heure: 02:32 (00:32 UTC)

Prévision

Le bulletin a été fait il y a 10 heures et 32 minutes, à 14:00 UTC
Prévision valable du 20 à 15 UTC au 21 à 15 UTC
Vent 12 kt de est
Visibilité 10 km ou plus
pas de nuages en-dessous de 1500 mètres et pas de cumulonimbus.
Evoluant progressivement
du 20 à 20 UTC au 20 à 22 UTC
Vent 3 kt de direction variable
Evoluant progressivement
du 21 à 09 UTC au 21 à 11 UTC
Vent 12 kt de nord-ouest

TAF: LFMP 201400Z 2015/2115 10012KT CAVOK BECMG 2020/2022 VRB03KT BECMG 2109/2111 32012KT

Observations et prévisions météorologiques de plus de 4000 aéroports (messages METAR et TAF).

Les stations disponibles sont représentées par des disques jaunes et rouges sur la carte.

Passer la souris dessus pour voir le nom de la station.

Cliquer dessus pour voir les observations et prévisions météorologiques.

Pour changer de carte: cliquez sur les boutons verts avec une croix noire pour zoomer, sur le bouton vert avec un tiret pour effectuer un zoom arrière, ou sur les flèches vertes pour les cartes adjacentes.


METAR-TAF: